sensor_id;sensor_type;location;lat;lon;timestamp;temperature;humidity
10437;DHT22;5265;50.006;9.202;2023-06-10T00:00:50;15.60;99.90
10437;DHT22;5265;50.006;9.202;2023-06-10T00:03:17;15.60;99.90
10437;DHT22;5265;50.006;9.202;2023-06-10T00:05:45;15.50;99.90
10437;DHT22;5265;50.006;9.202;2023-06-10T00:08:13;15.50;99.90
10437;DHT22;5265;50.006;9.202;2023-06-10T00:10:41;15.40;99.90
10437;DHT22;5265;50.006;9.202;2023-06-10T00:13:08;15.40;99.90
10437;DHT22;5265;50.006;9.202;2023-06-10T00:15:36;15.30;99.90
10437;DHT22;5265;50.006;9.202;2023-06-10T00:18:03;15.30;99.90
10437;DHT22;5265;50.006;9.202;2023-06-10T00:20:30;15.20;99.90
10437;DHT22;5265;50.006;9.202;2023-06-10T00:23:00;15.20;99.90
10437;DHT22;5265;50.006;9.202;2023-06-10T00:25:27;15.10;99.90
10437;DHT22;5265;50.006;9.202;2023-06-10T00:27:54;15.10;99.90
10437;DHT22;5265;50.006;9.202;2023-06-10T00:30:21;15.10;99.90
10437;DHT22;5265;50.006;9.202;2023-06-10T00:32:48;15.00;99.90
10437;DHT22;5265;50.006;9.202;2023-06-10T00:35:15;15.00;99.90
10437;DHT22;5265;50.006;9.202;2023-06-10T00:37:42;15.00;99.90
10437;DHT22;5265;50.006;9.202;2023-06-10T00:40:11;14.90;99.90
10437;DHT22;5265;50.006;9.202;2023-06-10T00:42:38;14.90;99.90
10437;DHT22;5265;50.006;9.202;2023-06-10T00:45:05;14.80;99.90
10437;DHT22;5265;50.006;9.202;2023-06-10T00:47:35;14.80;99.90
10437;DHT22;5265;50.006;9.202;2023-06-10T00:50:02;14.80;99.90
10437;DHT22;5265;50.006;9.202;2023-06-10T00:52:30;14.80;99.90
10437;DHT22;5265;50.006;9.202;2023-06-10T00:54:57;14.80;99.90
10437;DHT22;5265;50.006;9.202;2023-06-10T00:57:26;14.80;99.90
10437;DHT22;5265;50.006;9.202;2023-06-10T00:59:53;14.80;99.90
10437;DHT22;5265;50.006;9.202;2023-06-10T01:02:20;14.80;99.90
10437;DHT22;5265;50.006;9.202;2023-06-10T01:04:47;14.80;99.90
10437;DHT22;5265;50.006;9.202;2023-06-10T01:07:17;14.70;99.90
10437;DHT22;5265;50.006;9.202;2023-06-10T01:09:50;14.70;99.90
10437;DHT22;5265;50.006;9.202;2023-06-10T01:12:24;14.70;99.90
10437;DHT22;5265;50.006;9.202;2023-06-10T01:14:55;14.70;99.90
10437;DHT22;5265;50.006;9.202;2023-06-10T01:17:22;14.70;99.90
10437;DHT22;5265;50.006;9.202;2023-06-10T01:19:53;14.60;99.90
10437;DHT22;5265;50.006;9.202;2023-06-10T01:22:24;14.60;99.90
10437;DHT22;5265;50.006;9.202;2023-06-10T01:24:51;14.60;99.90
10437;DHT22;5265;50.006;9.202;2023-06-10T01:27:19;14.60;99.90
10437;DHT22;5265;50.006;9.202;2023-06-10T01:29:49;14.60;99.90
10437;DHT22;5265;50.006;9.202;2023-06-10T01:32:19;14.70;99.90
10437;DHT22;5265;50.006;9.202;2023-06-10T01:34:47;14.70;99.90
10437;DHT22;5265;50.006;9.202;2023-06-10T01:37:16;14.70;99.90
10437;DHT22;5265;50.006;9.202;2023-06-10T01:39:45;14.70;99.90
10437;DHT22;5265;50.006;9.202;2023-06-10T01:42:13;14.60;99.90
10437;DHT22;5265;50.006;9.202;2023-06-10T01:44:40;14.60;99.90
10437;DHT22;5265;50.006;9.202;2023-06-10T01:47:07;14.60;99.90
10437;DHT22;5265;50.006;9.202;2023-06-10T01:49:34;14.60;99.90
10437;DHT22;5265;50.006;9.202;2023-06-10T01:52:02;14.50;99.90
10437;DHT22;5265;50.006;9.202;2023-06-10T01:54:29;14.50;99.90
10437;DHT22;5265;50.006;9.202;2023-06-10T01:56:57;14.40;99.90
10437;DHT22;5265;50.006;9.202;2023-06-10T01:59:24;14.30;99.90
10437;DHT22;5265;50.006;9.202;2023-06-10T02:01:51;14.30;99.90
10437;DHT22;5265;50.006;9.202;2023-06-10T02:04:18;14.20;99.90
10437;DHT22;5265;50.006;9.202;2023-06-10T02:06:45;14.20;99.90
10437;DHT22;5265;50.006;9.202;2023-06-10T02:09:12;14.20;99.90
10437;DHT22;5265;50.006;9.202;2023-06-10T02:11:39;14.10;99.90
10437;DHT22;5265;50.006;9.202;2023-06-10T02:14:07;14.00;99.90
10437;DHT22;5265;50.006;9.202;2023-06-10T02:16:34;14.00;99.90
10437;DHT22;5265;50.006;9.202;2023-06-10T02:19:01;14.00;99.90
10437;DHT22;5265;50.006;9.202;2023-06-10T02:21:29;13.90;99.90
10437;DHT22;5265;50.006;9.202;2023-06-10T02:23:55;13.90;99.90
10437;DHT22;5265;50.006;9.202;2023-06-10T02:26:22;13.90;99.90
10437;DHT22;5265;50.006;9.202;2023-06-10T02:28:51;13.90;99.90
10437;DHT22;5265;50.006;9.202;2023-06-10T02:31:20;13.90;99.90
10437;DHT22;5265;50.006;9.202;2023-06-10T02:33:46;13.90;99.90
10437;DHT22;5265;50.006;9.202;2023-06-10T02:36:14;14.00;99.90
10437;DHT22;5265;50.006;9.202;2023-06-10T02:38:41;14.00;99.90
10437;DHT22;5265;50.006;9.202;2023-06-10T02:41:09;14.00;99.90
10437;DHT22;5265;50.006;9.202;2023-06-10T02:43:36;14.00;99.90
10437;DHT22;5265;50.006;9.202;2023-06-10T02:46:04;14.00;99.90
10437;DHT22;5265;50.006;9.202;2023-06-10T02:48:34;14.00;99.90
10437;DHT22;5265;50.006;9.202;2023-06-10T02:51:07;14.00;99.90
10437;DHT22;5265;50.006;9.202;2023-06-10T02:53:38;13.90;99.90
10437;DHT22;5265;50.006;9.202;2023-06-10T02:56:09;13.90;99.90
10437;DHT22;5265;50.006;9.202;2023-06-10T02:58:37;13.80;99.90
10437;DHT22;5265;50.006;9.202;2023-06-10T03:01:05;13.80;99.90
10437;DHT22;5265;50.006;9.202;2023-06-10T03:03:43;13.80;99.90
10437;DHT22;5265;50.006;9.202;2023-06-10T03:06:15;13.80;99.90
10437;DHT22;5265;50.006;9.202;2023-06-10T03:08:42;13.80;99.90
10437;DHT22;5265;50.006;9.202;2023-06-10T03:11:13;13.80;99.90
10437;DHT22;5265;50.006;9.202;2023-06-10T03:13:41;13.80;99.90
10437;DHT22;5265;50.006;9.202;2023-06-10T03:16:12;13.70;99.90
10437;DHT22;5265;50.006;9.202;2023-06-10T03:18:40;13.70;99.90
10437;DHT22;5265;50.006;9.202;2023-06-10T03:21:09;13.70;99.90
10437;DHT22;5265;50.006;9.202;2023-06-10T03:23:36;13.70;99.90
10437;DHT22;5265;50.006;9.202;2023-06-10T03:26:03;13.70;99.90
10437;DHT22;5265;50.006;9.202;2023-06-10T03:28:32;13.70;99.90
10437;DHT22;5265;50.006;9.202;2023-06-10T03:30:59;13.80;99.90
10437;DHT22;5265;50.006;9.202;2023-06-10T03:33:29;13.70;99.90
10437;DHT22;5265;50.006;9.202;2023-06-10T03:35:57;13.80;99.90
10437;DHT22;5265;50.006;9.202;2023-06-10T03:38:25;13.80;99.90
10437;DHT22;5265;50.006;9.202;2023-06-10T03:40:53;13.80;99.90
10437;DHT22;5265;50.006;9.202;2023-06-10T03:43:20;13.70;99.90
10437;DHT22;5265;50.006;9.202;2023-06-10T03:45:49;13.80;99.90
10437;DHT22;5265;50.006;9.202;2023-06-10T03:48:17;13.80;99.90
10437;DHT22;5265;50.006;9.202;2023-06-10T03:50:48;13.80;99.90
10437;DHT22;5265;50.006;9.202;2023-06-10T03:53:16;13.70;99.90
10437;DHT22;5265;50.006;9.202;2023-06-10T03:55:46;13.80;99.90
10437;DHT22;5265;50.006;9.202;2023-06-10T03:58:16;13.80;99.90
10437;DHT22;5265;50.006;9.202;2023-06-10T04:00:44;13.80;99.90
10437;DHT22;5265;50.006;9.202;2023-06-10T04:03:11;13.80;99.90
10437;DHT22;5265;50.006;9.202;2023-06-10T04:05:44;13.90;99.90
10437;DHT22;5265;50.006;9.202;2023-06-10T04:08:11;13.90;99.90
10437;DHT22;5265;50.006;9.202;2023-06-10T04:10:38;13.90;99.90
10437;DHT22;5265;50.006;9.202;2023-06-10T04:13:06;13.90;99.90
10437;DHT22;5265;50.006;9.202;2023-06-10T04:15:40;13.90;99.90
10437;DHT22;5265;50.006;9.202;2023-06-10T04:18:11;13.90;99.90
10437;DHT22;5265;50.006;9.202;2023-06-10T04:20:38;14.00;99.90
10437;DHT22;5265;50.006;9.202;2023-06-10T04:23:05;14.00;99.90
10437;DHT22;5265;50.006;9.202;2023-06-10T04:25:33;13.90;99.90
10437;DHT22;5265;50.006;9.202;2023-06-10T04:28:00;14.00;99.90
10437;DHT22;5265;50.006;9.202;2023-06-10T04:30:29;14.00;99.90
10437;DHT22;5265;50.006;9.202;2023-06-10T04:32:57;14.00;99.90
10437;DHT22;5265;50.006;9.202;2023-06-10T04:35:25;14.00;99.90
10437;DHT22;5265;50.006;9.202;2023-06-10T04:37:52;14.10;99.90
10437;DHT22;5265;50.006;9.202;2023-06-10T04:40:20;14.20;99.90
10437;DHT22;5265;50.006;9.202;2023-06-10T04:42:47;14.30;99.90
10437;DHT22;5265;50.006;9.202;2023-06-10T04:45:14;14.30;99.90
10437;DHT22;5265;50.006;9.202;2023-06-10T04:47:43;14.40;99.90
10437;DHT22;5265;50.006;9.202;2023-06-10T04:50:10;14.50;99.90
10437;DHT22;5265;50.006;9.202;2023-06-10T04:52:37;14.60;99.90
10437;DHT22;5265;50.006;9.202;2023-06-10T04:55:07;14.70;99.90
10437;DHT22;5265;50.006;9.202;2023-06-10T04:57:34;14.70;99.90
10437;DHT22;5265;50.006;9.202;2023-06-10T05:00:02;14.80;99.90
10437;DHT22;5265;50.006;9.202;2023-06-10T05:02:31;14.90;99.90
10437;DHT22;5265;50.006;9.202;2023-06-10T05:05:00;14.90;99.90
10437;DHT22;5265;50.006;9.202;2023-06-10T05:07:27;15.00;99.90
10437;DHT22;5265;50.006;9.202;2023-06-10T05:09:54;15.10;99.90
10437;DHT22;5265;50.006;9.202;2023-06-10T05:12:21;15.10;99.90
10437;DHT22;5265;50.006;9.202;2023-06-10T05:14:48;15.30;99.90
10437;DHT22;5265;50.006;9.202;2023-06-10T05:17:15;15.30;99.90
10437;DHT22;5265;50.006;9.202;2023-06-10T05:19:42;15.40;99.90
10437;DHT22;5265;50.006;9.202;2023-06-10T05:22:11;15.60;99.90
10437;DHT22;5265;50.006;9.202;2023-06-10T05:24:39;15.70;99.90
10437;DHT22;5265;50.006;9.202;2023-06-10T05:27:07;15.80;99.90
10437;DHT22;5265;50.006;9.202;2023-06-10T05:29:35;15.90;99.90
10437;DHT22;5265;50.006;9.202;2023-06-10T05:32:05;15.90;99.90
10437;DHT22;5265;50.006;9.202;2023-06-10T05:34:31;16.30;99.90
10437;DHT22;5265;50.006;9.202;2023-06-10T05:36:59;16.40;99.90
10437;DHT22;5265;50.006;9.202;2023-06-10T05:39:27;16.60;99.90
10437;DHT22;5265;50.006;9.202;2023-06-10T05:41:54;16.70;99.90
10437;DHT22;5265;50.006;9.202;2023-06-10T05:44:24;17.00;99.90
10437;DHT22;5265;50.006;9.202;2023-06-10T05:46:51;17.10;99.90
10437;DHT22;5265;50.006;9.202;2023-06-10T05:49:18;17.20;99.90
10437;DHT22;5265;50.006;9.202;2023-06-10T05:51:45;17.40;99.90
10437;DHT22;5265;50.006;9.202;2023-06-10T05:54:12;17.50;99.90
10437;DHT22;5265;50.006;9.202;2023-06-10T05:56:41;17.60;99.90
10437;DHT22;5265;50.006;9.202;2023-06-10T05:59:08;17.70;99.90
10437;DHT22;5265;50.006;9.202;2023-06-10T06:01:35;18.00;99.90
10437;DHT22;5265;50.006;9.202;2023-06-10T06:04:03;18.10;99.90
10437;DHT22;5265;50.006;9.202;2023-06-10T06:06:29;18.30;99.90
10437;DHT22;5265;50.006;9.202;2023-06-10T06:08:57;18.30;99.90
10437;DHT22;5265;50.006;9.202;2023-06-10T06:11:23;18.40;99.90
10437;DHT22;5265;50.006;9.202;2023-06-10T06:13:53;18.60;99.90
10437;DHT22;5265;50.006;9.202;2023-06-10T06:16:20;18.70;99.90
10437;DHT22;5265;50.006;9.202;2023-06-10T06:18:47;18.80;99.90
10437;DHT22;5265;50.006;9.202;2023-06-10T06:21:15;19.00;99.90
10437;DHT22;5265;50.006;9.202;2023-06-10T06:23:42;19.20;99.90
10437;DHT22;5265;50.006;9.202;2023-06-10T06:26:09;19.30;99.90
10437;DHT22;5265;50.006;9.202;2023-06-10T06:28:36;19.40;99.90
10437;DHT22;5265;50.006;9.202;2023-06-10T06:31:05;19.50;99.90
10437;DHT22;5265;50.006;9.202;2023-06-10T06:33:32;19.70;99.90
10437;DHT22;5265;50.006;9.202;2023-06-10T06:36:00;19.80;99.90
10437;DHT22;5265;50.006;9.202;2023-06-10T06:38:27;19.90;99.90
10437;DHT22;5265;50.006;9.202;2023-06-10T06:40:54;20.10;99.90
10437;DHT22;5265;50.006;9.202;2023-06-10T06:43:21;20.40;99.90
10437;DHT22;5265;50.006;9.202;2023-06-10T06:46:10;20.60;99.90
10437;DHT22;5265;50.006;9.202;2023-06-10T06:48:37;20.80;99.90
10437;DHT22;5265;50.006;9.202;2023-06-10T06:51:04;20.80;99.90
10437;DHT22;5265;50.006;9.202;2023-06-10T06:53:31;20.90;99.90
10437;DHT22;5265;50.006;9.202;2023-06-10T06:56:00;21.00;99.90
10437;DHT22;5265;50.006;9.202;2023-06-10T06:58:28;21.10;99.90
10437;DHT22;5265;50.006;9.202;2023-06-10T07:00:55;21.40;99.90
10437;DHT22;5265;50.006;9.202;2023-06-10T07:03:24;21.50;99.90
10437;DHT22;5265;50.006;9.202;2023-06-10T07:05:51;21.70;99.90
10437;DHT22;5265;50.006;9.202;2023-06-10T07:08:19;21.90;99.90
10437;DHT22;5265;50.006;9.202;2023-06-10T07:10:45;22.00;99.90
10437;DHT22;5265;50.006;9.202;2023-06-10T07:13:12;22.10;99.90
10437;DHT22;5265;50.006;9.202;2023-06-10T07:15:39;22.20;99.90
10437;DHT22;5265;50.006;9.202;2023-06-10T07:18:06;22.30;99.90
10437;DHT22;5265;50.006;9.202;2023-06-10T07:20:35;22.40;99.90
10437;DHT22;5265;50.006;9.202;2023-06-10T07:23:02;22.50;99.90
10437;DHT22;5265;50.006;9.202;2023-06-10T07:25:29;22.60;99.90
10437;DHT22;5265;50.006;9.202;2023-06-10T07:27:56;22.70;99.90
10437;DHT22;5265;50.006;9.202;2023-06-10T07:30:23;22.80;99.90
10437;DHT22;5265;50.006;9.202;2023-06-10T07:32:50;22.80;99.90
10437;DHT22;5265;50.006;9.202;2023-06-10T07:35:18;23.00;99.90
10437;DHT22;5265;50.006;9.202;2023-06-10T07:37:46;23.20;99.90
10437;DHT22;5265;50.006;9.202;2023-06-10T07:40:13;23.40;99.90
10437;DHT22;5265;50.006;9.202;2023-06-10T07:42:40;23.60;99.90
10437;DHT22;5265;50.006;9.202;2023-06-10T07:45:08;23.80;99.90
10437;DHT22;5265;50.006;9.202;2023-06-10T07:47:36;23.90;99.90
10437;DHT22;5265;50.006;9.202;2023-06-10T07:50:03;24.00;99.90
10437;DHT22;5265;50.006;9.202;2023-06-10T07:52:30;24.20;99.90
10437;DHT22;5265;50.006;9.202;2023-06-10T07:54:59;24.30;99.90
10437;DHT22;5265;50.006;9.202;2023-06-10T07:57:25;24.40;99.90
10437;DHT22;5265;50.006;9.202;2023-06-10T07:59:53;24.60;99.90
10437;DHT22;5265;50.006;9.202;2023-06-10T08:02:20;24.70;99.90
10437;DHT22;5265;50.006;9.202;2023-06-10T08:04:47;24.80;99.90
10437;DHT22;5265;50.006;9.202;2023-06-10T08:07:14;24.90;99.90
10437;DHT22;5265;50.006;9.202;2023-06-10T08:09:43;25.00;99.90
10437;DHT22;5265;50.006;9.202;2023-06-10T08:12:12;25.10;99.90
10437;DHT22;5265;50.006;9.202;2023-06-10T08:14:41;25.20;99.90
10437;DHT22;5265;50.006;9.202;2023-06-10T08:17:08;25.20;99.90
10437;DHT22;5265;50.006;9.202;2023-06-10T08:19:35;25.30;99.90
10437;DHT22;5265;50.006;9.202;2023-06-10T08:22:03;25.40;99.90
10437;DHT22;5265;50.006;9.202;2023-06-10T08:24:30;25.40;99.90
10437;DHT22;5265;50.006;9.202;2023-06-10T08:26:57;25.40;99.90
10437;DHT22;5265;50.006;9.202;2023-06-10T08:29:25;25.50;99.90
10437;DHT22;5265;50.006;9.202;2023-06-10T08:31:52;25.70;99.90
10437;DHT22;5265;50.006;9.202;2023-06-10T08:34:19;25.80;99.90
10437;DHT22;5265;50.006;9.202;2023-06-10T08:36:46;25.90;99.90
10437;DHT22;5265;50.006;9.202;2023-06-10T08:39:13;26.00;99.90
10437;DHT22;5265;50.006;9.202;2023-06-10T08:41:42;26.00;99.50
10437;DHT22;5265;50.006;9.202;2023-06-10T08:44:10;26.10;99.60
10437;DHT22;5265;50.006;9.202;2023-06-10T08:46:41;26.20;99.40
10437;DHT22;5265;50.006;9.202;2023-06-10T08:49:11;26.40;99.70
10437;DHT22;5265;50.006;9.202;2023-06-10T08:51:41;26.40;99.30
10437;DHT22;5265;50.006;9.202;2023-06-10T08:54:10;26.50;99.10
10437;DHT22;5265;50.006;9.202;2023-06-10T08:56:39;26.50;98.30
10437;DHT22;5265;50.006;9.202;2023-06-10T08:59:06;26.50;98.30
10437;DHT22;5265;50.006;9.202;2023-06-10T09:01:33;26.50;98.40
10437;DHT22;5265;50.006;9.202;2023-06-10T09:04:01;26.60;98.00
10437;DHT22;5265;50.006;9.202;2023-06-10T09:06:29;26.60;97.80
10437;DHT22;5265;50.006;9.202;2023-06-10T09:08:57;26.70;98.00
10437;DHT22;5265;50.006;9.202;2023-06-10T09:11:26;26.80;97.50
10437;DHT22;5265;50.006;9.202;2023-06-10T09:13:54;26.90;97.70
10437;DHT22;5265;50.006;9.202;2023-06-10T09:16:21;27.00;97.40
10437;DHT22;5265;50.006;9.202;2023-06-10T09:18:48;27.10;97.00
10437;DHT22;5265;50.006;9.202;2023-06-10T09:21:22;27.10;97.00
10437;DHT22;5265;50.006;9.202;2023-06-10T09:23:49;27.20;97.10
10437;DHT22;5265;50.006;9.202;2023-06-10T09:26:17;27.20;96.50
10437;DHT22;5265;50.006;9.202;2023-06-10T09:28:44;27.30;96.50
10437;DHT22;5265;50.006;9.202;2023-06-10T09:31:11;27.40;96.90
10437;DHT22;5265;50.006;9.202;2023-06-10T09:33:39;27.50;96.60
10437;DHT22;5265;50.006;9.202;2023-06-10T09:36:07;27.60;96.10
10437;DHT22;5265;50.006;9.202;2023-06-10T09:38:35;27.60;96.10
10437;DHT22;5265;50.006;9.202;2023-06-10T09:41:02;27.70;96.00
10437;DHT22;5265;50.006;9.202;2023-06-10T09:43:39;27.80;95.80
10437;DHT22;5265;50.006;9.202;2023-06-10T09:46:07;27.80;95.60
10437;DHT22;5265;50.006;9.202;2023-06-10T09:48:34;27.90;95.30
10437;DHT22;5265;50.006;9.202;2023-06-10T09:51:01;28.00;94.80
10437;DHT22;5265;50.006;9.202;2023-06-10T09:53:32;28.10;94.90
10437;DHT22;5265;50.006;9.202;2023-06-10T09:56:01;28.10;94.90
10437;DHT22;5265;50.006;9.202;2023-06-10T09:58:35;28.20;95.10
10437;DHT22;5265;50.006;9.202;2023-06-10T10:01:04;28.30;95.00
10437;DHT22;5265;50.006;9.202;2023-06-10T10:03:31;28.40;94.90
10437;DHT22;5265;50.006;9.202;2023-06-10T10:05:58;28.50;94.80
10437;DHT22;5265;50.006;9.202;2023-06-10T10:08:26;28.70;94.60
10437;DHT22;5265;50.006;9.202;2023-06-10T10:10:53;28.80;94.30
10437;DHT22;5265;50.006;9.202;2023-06-10T10:13:22;28.70;94.10
10437;DHT22;5265;50.006;9.202;2023-06-10T10:15:50;28.80;93.90
10437;DHT22;5265;50.006;9.202;2023-06-10T10:18:17;28.80;94.20
10437;DHT22;5265;50.006;9.202;2023-06-10T10:20:46;28.80;93.80
10437;DHT22;5265;50.006;9.202;2023-06-10T10:23:14;28.90;93.40
10437;DHT22;5265;50.006;9.202;2023-06-10T10:25:45;28.90;93.40
10437;DHT22;5265;50.006;9.202;2023-06-10T10:28:13;29.00;93.20
10437;DHT22;5265;50.006;9.202;2023-06-10T10:30:52;29.00;93.00
10437;DHT22;5265;50.006;9.202;2023-06-10T10:33:21;28.90;93.20
10437;DHT22;5265;50.006;9.202;2023-06-10T10:35:49;29.00;93.30
10437;DHT22;5265;50.006;9.202;2023-06-10T10:38:16;29.10;92.90
10437;DHT22;5265;50.006;9.202;2023-06-10T10:40:44;29.10;93.40
10437;DHT22;5265;50.006;9.202;2023-06-10T10:43:11;29.30;93.10
10437;DHT22;5265;50.006;9.202;2023-06-10T10:45:39;29.30;92.80
10437;DHT22;5265;50.006;9.202;2023-06-10T10:48:08;29.30;92.60
10437;DHT22;5265;50.006;9.202;2023-06-10T10:50:37;29.40;92.20
10437;DHT22;5265;50.006;9.202;2023-06-10T10:53:05;29.60;92.20
10437;DHT22;5265;50.006;9.202;2023-06-10T10:55:32;29.70;92.20
10437;DHT22;5265;50.006;9.202;2023-06-10T10:58:02;29.60;92.10
10437;DHT22;5265;50.006;9.202;2023-06-10T11:00:30;29.70;91.50
10437;DHT22;5265;50.006;9.202;2023-06-10T11:02:58;29.70;91.60
10437;DHT22;5265;50.006;9.202;2023-06-10T11:05:36;29.70;91.40
10437;DHT22;5265;50.006;9.202;2023-06-10T11:08:04;29.80;90.60
10437;DHT22;5265;50.006;9.202;2023-06-10T11:10:32;29.90;90.60
10437;DHT22;5265;50.006;9.202;2023-06-10T11:12:59;29.90;90.20
10437;DHT22;5265;50.006;9.202;2023-06-10T11:15:27;30.00;90.80
10437;DHT22;5265;50.006;9.202;2023-06-10T11:18:07;30.10;89.60
10437;DHT22;5265;50.006;9.202;2023-06-10T11:20:55;29.90;87.50
10437;DHT22;5265;50.006;9.202;2023-06-10T11:23:39;29.80;87.60
10437;DHT22;5265;50.006;9.202;2023-06-10T11:26:20;29.60;89.30
10437;DHT22;5265;50.006;9.202;2023-06-10T11:29:06;29.50;89.70
10437;DHT22;5265;50.006;9.202;2023-06-10T11:31:39;29.60;89.40
10437;DHT22;5265;50.006;9.202;2023-06-10T11:34:08;29.60;89.90
10437;DHT22;5265;50.006;9.202;2023-06-10T11:36:37;29.80;90.30
10437;DHT22;5265;50.006;9.202;2023-06-10T11:39:05;30.00;90.10
10437;DHT22;5265;50.006;9.202;2023-06-10T11:41:33;30.10;89.20
10437;DHT22;5265;50.006;9.202;2023-06-10T11:44:01;30.30;89.10
10437;DHT22;5265;50.006;9.202;2023-06-10T11:46:28;30.40;89.00
10437;DHT22;5265;50.006;9.202;2023-06-10T11:48:56;30.50;88.60
10437;DHT22;5265;50.006;9.202;2023-06-10T11:51:25;30.60;87.60
10437;DHT22;5265;50.006;9.202;2023-06-10T11:53:54;30.60;88.00
10437;DHT22;5265;50.006;9.202;2023-06-10T11:56:21;30.60;88.50
10437;DHT22;5265;50.006;9.202;2023-06-10T11:58:51;30.70;88.50
10437;DHT22;5265;50.006;9.202;2023-06-10T12:01:19;30.90;87.90
10437;DHT22;5265;50.006;9.202;2023-06-10T12:03:47;31.00;87.00
10437;DHT22;5265;50.006;9.202;2023-06-10T12:06:15;31.00;87.40
10437;DHT22;5265;50.006;9.202;2023-06-10T12:08:42;31.20;87.40
10437;DHT22;5265;50.006;9.202;2023-06-10T12:11:10;31.20;86.20
10437;DHT22;5265;50.006;9.202;2023-06-10T12:13:38;31.40;86.90
10437;DHT22;5265;50.006;9.202;2023-06-10T12:16:12;31.60;86.90
10437;DHT22;5265;50.006;9.202;2023-06-10T12:18:40;31.70;87.10
10437;DHT22;5265;50.006;9.202;2023-06-10T12:21:15;31.90;86.10
10437;DHT22;5265;50.006;9.202;2023-06-10T12:26:34;32.20;84.90
10437;DHT22;5265;50.006;9.202;2023-06-10T12:29:01;32.20;85.10
10437;DHT22;5265;50.006;9.202;2023-06-10T12:31:29;32.50;85.30
10437;DHT22;5265;50.006;9.202;2023-06-10T12:34:07;32.60;84.70
10437;DHT22;5265;50.006;9.202;2023-06-10T12:36:34;32.70;84.80
10437;DHT22;5265;50.006;9.202;2023-06-10T12:39:02;32.80;84.20
10437;DHT22;5265;50.006;9.202;2023-06-10T12:41:30;32.80;83.70
10437;DHT22;5265;50.006;9.202;2023-06-10T12:43:58;32.90;83.60
10437;DHT22;5265;50.006;9.202;2023-06-10T12:46:35;32.90;84.20
10437;DHT22;5265;50.006;9.202;2023-06-10T12:49:02;32.90;82.80
10437;DHT22;5265;50.006;9.202;2023-06-10T12:51:29;32.90;83.60
10437;DHT22;5265;50.006;9.202;2023-06-10T12:53:56;33.00;84.20
10437;DHT22;5265;50.006;9.202;2023-06-10T12:56:24;33.30;82.80
10437;DHT22;5265;50.006;9.202;2023-06-10T12:58:51;33.50;82.20
10437;DHT22;5265;50.006;9.202;2023-06-10T13:01:19;33.60;81.90
10437;DHT22;5265;50.006;9.202;2023-06-10T13:03:47;33.60;81.80
10437;DHT22;5265;50.006;9.202;2023-06-10T13:06:14;33.90;82.60
10437;DHT22;5265;50.006;9.202;2023-06-10T13:08:42;34.10;81.60
10437;DHT22;5265;50.006;9.202;2023-06-10T13:11:09;34.30;81.60
10437;DHT22;5265;50.006;9.202;2023-06-10T13:13:36;34.50;81.50
10437;DHT22;5265;50.006;9.202;2023-06-10T13:16:03;34.70;82.30
10437;DHT22;5265;50.006;9.202;2023-06-10T13:18:32;34.90;81.00
10437;DHT22;5265;50.006;9.202;2023-06-10T13:21:03;34.80;80.60
10437;DHT22;5265;50.006;9.202;2023-06-10T13:23:30;35.30;79.70
10437;DHT22;5265;50.006;9.202;2023-06-10T13:25:58;35.60;79.40
10437;DHT22;5265;50.006;9.202;2023-06-10T13:28:25;35.40;78.60
10437;DHT22;5265;50.006;9.202;2023-06-10T13:30:53;35.70;79.00
10437;DHT22;5265;50.006;9.202;2023-06-10T13:33:20;35.80;77.30
10437;DHT22;5265;50.006;9.202;2023-06-10T13:35:48;35.90;76.40
10437;DHT22;5265;50.006;9.202;2023-06-10T13:38:15;36.10;76.20
10437;DHT22;5265;50.006;9.202;2023-06-10T13:40:42;36.20;76.40
10437;DHT22;5265;50.006;9.202;2023-06-10T13:43:10;36.20;74.80
10437;DHT22;5265;50.006;9.202;2023-06-10T13:45:37;35.80;74.90
10437;DHT22;5265;50.006;9.202;2023-06-10T13:48:04;35.80;75.20
10437;DHT22;5265;50.006;9.202;2023-06-10T13:50:31;36.00;75.30
10437;DHT22;5265;50.006;9.202;2023-06-10T13:53:00;36.20;74.70
10437;DHT22;5265;50.006;9.202;2023-06-10T13:55:27;36.40;75.20
10437;DHT22;5265;50.006;9.202;2023-06-10T13:57:54;36.60;74.80
10437;DHT22;5265;50.006;9.202;2023-06-10T14:00:21;36.60;74.10
10437;DHT22;5265;50.006;9.202;2023-06-10T14:02:48;36.70;73.30
10437;DHT22;5265;50.006;9.202;2023-06-10T14:05:16;36.80;72.90
10437;DHT22;5265;50.006;9.202;2023-06-10T14:07:43;36.60;71.20
10437;DHT22;5265;50.006;9.202;2023-06-10T14:10:11;36.60;72.00
10437;DHT22;5265;50.006;9.202;2023-06-10T14:12:39;36.90;71.50
10437;DHT22;5265;50.006;9.202;2023-06-10T14:15:06;36.60;71.00
10437;DHT22;5265;50.006;9.202;2023-06-10T14:17:33;36.60;71.40
10437;DHT22;5265;50.006;9.202;2023-06-10T14:20:00;36.80;69.70
10437;DHT22;5265;50.006;9.202;2023-06-10T14:22:28;37.10;70.80
10437;DHT22;5265;50.006;9.202;2023-06-10T14:24:56;37.40;70.50
10437;DHT22;5265;50.006;9.202;2023-06-10T14:27:24;37.60;70.60
10437;DHT22;5265;50.006;9.202;2023-06-10T14:29:51;37.50;71.00
10437;DHT22;5265;50.006;9.202;2023-06-10T14:32:18;37.10;71.90
10437;DHT22;5265;50.006;9.202;2023-06-10T14:34:45;37.30;72.10
10437;DHT22;5265;50.006;9.202;2023-06-10T14:37:13;36.90;71.30
10437;DHT22;5265;50.006;9.202;2023-06-10T14:39:40;37.00;72.10
10437;DHT22;5265;50.006;9.202;2023-06-10T14:42:07;36.90;70.00
10437;DHT22;5265;50.006;9.202;2023-06-10T14:44:36;36.60;71.00
10437;DHT22;5265;50.006;9.202;2023-06-10T14:47:03;36.40;71.00
10437;DHT22;5265;50.006;9.202;2023-06-10T14:49:30;36.60;72.10
10437;DHT22;5265;50.006;9.202;2023-06-10T14:51:57;36.70;70.70
10437;DHT22;5265;50.006;9.202;2023-06-10T14:54:25;36.80;70.50
10437;DHT22;5265;50.006;9.202;2023-06-10T14:56:52;36.60;69.20
10437;DHT22;5265;50.006;9.202;2023-06-10T14:59:19;36.50;70.90
10437;DHT22;5265;50.006;9.202;2023-06-10T15:01:48;36.80;69.80
10437;DHT22;5265;50.006;9.202;2023-06-10T15:04:15;37.20;69.00
10437;DHT22;5265;50.006;9.202;2023-06-10T15:06:42;37.30;68.10
10437;DHT22;5265;50.006;9.202;2023-06-10T15:09:10;37.40;67.20
10437;DHT22;5265;50.006;9.202;2023-06-10T15:11:37;37.40;66.40
10437;DHT22;5265;50.006;9.202;2023-06-10T15:14:04;37.80;66.40
10437;DHT22;5265;50.006;9.202;2023-06-10T15:16:32;38.00;65.80
10437;DHT22;5265;50.006;9.202;2023-06-10T15:19:00;38.30;64.70
10437;DHT22;5265;50.006;9.202;2023-06-10T15:21:27;38.60;65.40
10437;DHT22;5265;50.006;9.202;2023-06-10T15:23:55;38.50;65.10
10437;DHT22;5265;50.006;9.202;2023-06-10T15:26:22;38.60;65.20
10437;DHT22;5265;50.006;9.202;2023-06-10T15:28:49;38.90;63.80
10437;DHT22;5265;50.006;9.202;2023-06-10T15:31:16;38.90;64.70
10437;DHT22;5265;50.006;9.202;2023-06-10T15:33:44;39.10;65.00
10437;DHT22;5265;50.006;9.202;2023-06-10T15:36:12;39.30;64.90
10437;DHT22;5265;50.006;9.202;2023-06-10T15:38:39;39.80;65.00
10437;DHT22;5265;50.006;9.202;2023-06-10T15:41:07;39.40;63.50
10437;DHT22;5265;50.006;9.202;2023-06-10T15:43:34;38.50;64.90
10437;DHT22;5265;50.006;9.202;2023-06-10T15:46:01;38.20;65.10
10437;DHT22;5265;50.006;9.202;2023-06-10T15:48:28;37.60;65.30
10437;DHT22;5265;50.006;9.202;2023-06-10T15:50:55;37.20;66.00
10437;DHT22;5265;50.006;9.202;2023-06-10T15:53:24;36.90;66.90